Time;durP1;ratioP1;P1;durP2;ratioP2;P2;SDS_P1;SDS_P2;PMS_P1;PMS_P2;Temp;Humidity;BMP_temperature;BMP_pressure;BME280_temperature;BME280_humidity;BME280_pressure;Samples;Min_cycle;Max_cycle;Signal;HPM_P1;HPM_P2
2022/01/27 00:02:57;;;;;;;56.40;27.02;;;102.90;2227.20;;;;;;4867630;29;20435;-79
2022/01/27 00:05:19;;;;;;;56.03;27.48;;;102.90;2227.20;;;;;;4868294;29;20496;-83
2022/01/27 00:08:07;;;;;;;54.03;26.35;;;102.80;2227.20;;;;;;4870838;29;20049;-82
2022/01/27 00:13:16;;;;;;;51.33;25.13;;;102.80;2227.20;;;;;;4865913;29;20146;-82
2022/01/27 00:15:43;;;;;;;;;;;102.70;2227.20;;;;;;4872550;29;20045;-84
2022/01/27 00:18:15;;;;;;;47.40;21.98;;;102.60;2227.20;;;;;;4865130;29;19960;-83
2022/01/27 00:20:41;;;;;;;58.78;26.98;;;102.70;2227.20;;;;;;4898228;29;20038;-83
2022/01/27 00:23:08;;;;;;;51.08;25.75;;;102.60;2227.20;;;;;;4908384;29;20050;-84
2022/01/27 00:25:34;;;;;;;59.13;28.35;;;102.50;2227.20;;;;;;4905771;29;20027;-79
2022/01/27 00:28:00;;;;;;;52.13;28.00;;;102.50;2227.20;;;;;;4907234;29;20088;-80
2022/01/27 00:30:26;;;;;;;57.53;27.35;;;102.50;2227.20;;;;;;4906379;29;20032;-76
2022/01/27 00:32:52;;;;;;;;;;;102.50;2227.20;;;;;;4909099;29;20055;-84
2022/01/27 00:35:17;;;;;;;58.05;27.27;;;102.50;2227.20;;;;;;4905438;29;20390;-80
2022/01/27 00:37:43;;;;;;;;;;;102.50;2227.20;;;;;;4908229;29;20035;-79
2022/01/27 00:40:12;;;;;;;57.55;27.33;;;102.70;2227.20;;;;;;4907707;29;19958;-84
2022/01/27 00:42:41;;;;;;;63.75;28.77;;;102.60;2227.20;;;;;;4907799;29;20043;-84
2022/01/27 00:45:08;;;;;;;55.47;27.55;;;102.60;2227.20;;;;;;4905629;29;20103;-78
2022/01/27 00:47:34;;;;;;;63.42;28.80;;;102.70;2227.20;;;;;;4907377;29;20403;-81
2022/01/27 00:50:00;;;;;;;65.80;28.02;;;102.80;2227.20;;;;;;4887231;29;20557;-83
2022/01/27 00:53:01;;;;;;;60.35;27.92;;;102.70;2227.20;;;;;;4891897;29;20120;-77
2022/01/27 00:55:18;;;;;;;59.10;29.77;;;102.70;2227.20;;;;;;4904691;29;20039;-83
2022/01/27 01:00:17;;;;;;;60.15;29.65;;;102.70;2227.20;;;;;;4908385;29;20060;-84
2022/01/27 01:02:55;;;;;;;66.43;30.55;;;102.60;2227.20;;;;;;4890210;29;20033;-78
2022/01/27 01:08:48;;;;;;;57.38;28.67;;;102.70;2227.20;;;;;;4909209;29;20082;-77
2022/01/27 01:16:07;;;;;;;63.97;28.95;;;102.60;2227.20;;;;;;4906735;29;20031;-76
2022/01/27 01:34:43;;;;;;;68.13;28.95;;;102.70;2227.20;;;;;;4880539;29;20104;-86
2022/01/27 01:37:09;;;;;;;57.55;28.27;;;102.70;2227.20;;;;;;4864876;29;20029;-84
2022/01/27 01:39:37;;;;;;;59.95;27.83;;;102.90;2227.20;;;;;;4879593;29;20433;-85
2022/01/27 01:42:06;;;;;;;55.97;26.30;;;102.80;2227.20;;;;;;4880377;29;20051;-78
2022/01/27 01:44:32;;;;;;;55.38;28.80;;;102.80;2227.20;;;;;;4880698;29;20508;-84
2022/01/27 01:46:57;;;;;;;56.70;26.70;;;102.80;2227.20;;;;;;4880747;29;20048;-85
2022/01/27 01:49:26;;;;;;;51.47;25.33;;;102.80;2227.20;;;;;;4879931;29;20053;-81
2022/01/27 01:51:56;;;;;;;48.85;26.27;;;102.80;2227.20;;;;;;4880233;29;20073;-78
2022/01/27 01:54:22;;;;;;;59.45;25.73;;;102.80;2227.20;;;;;;4878139;29;20539;-75
2022/01/27 01:56:48;;;;;;;49.45;25.73;;;102.70;2227.20;;;;;;4880022;29;20029;-78
2022/01/27 01:59:14;;;;;;;;;;;102.60;2227.20;;;;;;4880402;29;20036;-86
2022/01/27 02:01:41;;;;;;;53.72;25.10;;;102.80;2227.20;;;;;;4877492;29;19911;-79
2022/01/27 02:04:09;;;;;;;58.47;27.42;;;102.80;2227.20;;;;;;4880203;29;20032;-86
2022/01/27 02:06:46;;;;;;;53.83;24.38;;;102.90;2227.20;;;;;;4879931;29;20044;-82
2022/01/27 02:09:27;;;;;;;53.15;27.17;;;102.80;2227.20;;;;;;4904300;29;20083;-85
2022/01/27 02:20:08;;;;;;;49.10;25.30;;;102.80;2227.20;;;;;;4909962;29;20032;-76
2022/01/27 02:22:34;;;;;;;54.13;25.23;;;102.80;2227.20;;;;;;4908985;29;20028;-76
2022/01/27 02:25:00;;;;;;;46.05;23.95;;;102.90;2227.20;;;;;;4908469;29;20397;-79
2022/01/27 02:27:26;;;;;;;51.80;26.45;;;102.80;2227.20;;;;;;4894298;29;20039;-79
2022/01/27 02:29:51;;;;;;;;;;;102.90;2227.20;;;;;;4908529;29;20377;-79
2022/01/27 02:32:19;;;;;;;49.05;23.73;;;102.80;2227.20;;;;;;4893921;29;19907;-86
2022/01/27 02:34:45;;;;;;;53.20;26.95;;;102.80;2227.20;;;;;;4908841;29;20048;-79
2022/01/27 02:37:11;;;;;;;51.97;25.17;;;102.90;2227.20;;;;;;4908290;29;20084;-76
2022/01/27 02:39:37;;;;;;;;;;;102.90;2227.20;;;;;;4908158;29;20060;-79
2022/01/27 02:42:14;;;;;;;52.25;25.42;;;103.00;2227.20;;;;;;4908751;29;19915;-82
2022/01/27 02:44:53;;;;;;;49.67;25.35;;;103.00;2227.20;;;;;;4908011;29;20512;-83
2022/01/27 02:47:20;;;;;;;54.05;25.65;;;103.00;2227.20;;;;;;4908051;29;20080;-84
2022/01/27 02:49:46;;;;;;;47.60;24.13;;;103.00;2227.20;;;;;;4909699;29;20481;-85
2022/01/27 02:52:11;;;;;;;51.13;26.35;;;103.00;2227.20;;;;;;4911895;29;20029;-86
2022/01/27 02:54:37;;;;;;;;;;;103.10;2227.20;;;;;;4891819;29;20036;-82
2022/01/27 02:57:03;;;;;;;50.50;24.13;;;103.10;2227.20;;;;;;4908003;29;19914;-76
2022/01/27 02:59:29;;;;;;;52.22;26.80;;;103.00;2227.20;;;;;;4894130;29;20119;-86
2022/01/27 03:01:55;;;;;;;;;;;103.00;2227.20;;;;;;4909897;29;20353;-84
2022/01/27 03:04:24;;;;;;;47.22;23.17;;;103.00;2227.20;;;;;;4907696;29;19933;-86
2022/01/27 03:06:50;;;;;;;52.78;25.15;;;102.90;2227.20;;;;;;4910773;29;20029;-86
2022/01/27 03:09:16;;;;;;;49.88;25.08;;;103.00;2227.20;;;;;;4907894;29;20067;-86
2022/01/27 03:11:56;;;;;;;53.28;26.17;;;103.10;2227.20;;;;;;4909802;29;20111;-82
2022/01/27 03:14:24;;;;;;;53.05;27.27;;;103.10;2227.20;;;;;;4909275;29;20155;-85
2022/01/27 03:16:54;;;;;;;52.67;24.98;;;103.10;2227.20;;;;;;4907784;29;20041;-76
2022/01/27 03:19:20;;;;;;;51.75;26.30;;;103.00;2227.20;;;;;;4891237;29;20107;-76
2022/01/27 03:21:46;;;;;;;52.95;27.20;;;102.90;2227.20;;;;;;4911706;29;20054;-86
2022/01/27 03:24:12;;;;;;;48.97;23.98;;;102.90;2227.20;;;;;;4909706;29;20032;-87
2022/01/27 03:26:38;;;;;;;52.33;26.25;;;102.80;2227.20;;;;;;4906828;29;20029;-86
2022/01/27 03:29:04;;;;;;;;;;;102.90;2227.20;;;;;;4907701;29;20029;-85
2022/01/27 03:31:29;;;;;;;45.90;24.20;;;102.80;2227.20;;;;;;4891843;29;20391;-87
2022/01/27 03:33:55;;;;;;;;;;;102.80;2227.20;;;;;;4892628;29;20076;-87
2022/01/27 03:36:21;;;;;;;54.03;26.70;;;102.80;2227.20;;;;;;4909595;29;19963;-82
2022/01/27 03:38:47;;;;;;;54.60;25.67;;;102.70;2227.20;;;;;;4903800;29;20108;-85
2022/01/27 03:41:18;;;;;;;;;;;102.70;2227.20;;;;;;4899047;29;20040;-75
2022/01/27 03:43:44;;;;;;;50.38;24.30;;;102.70;2227.20;;;;;;4881936;29;19916;-86
2022/01/27 03:46:10;;;;;;;;;;;102.60;2227.20;;;;;;4898571;29;20032;-84
2022/01/27 03:48:36;;;;;;;52.13;24.42;;;102.60;2227.20;;;;;;4882194;29;19923;-87
2022/01/27 03:51:02;;;;;;;;;;;102.50;2227.20;;;;;;4899072;29;20025;-85
2022/01/27 03:53:28;;;;;;;54.97;24.58;;;102.60;2227.20;;;;;;4898585;29;19912;-79
2022/01/27 03:55:53;;;;;;;48.08;24.85;;;102.60;2227.20;;;;;;4897974;29;20366;-83
2022/01/27 03:58:19;;;;;;;;;;;102.50;2227.20;;;;;;4898748;29;20115;-75
2022/01/27 04:00:45;;;;;;;55.42;23.55;;;102.60;2227.20;;;;;;4879341;29;19911;-87
2022/01/27 04:03:13;;;;;;;;;;;102.60;2227.20;;;;;;4881826;29;20032;-78
2022/01/27 04:05:50;;;;;;;53.08;24.77;;;102.70;2227.20;;;;;;4898181;29;19908;-77
2022/01/27 04:08:16;;;;;;;41.33;19.65;;;102.60;2227.20;;;;;;4897342;29;20484;-76
2022/01/27 04:10:42;;;;;;;50.92;23.95;;;102.60;2227.20;;;;;;4898016;29;20036;-84
2022/01/27 04:13:08;;;;;;;48.78;24.50;;;102.60;2227.20;;;;;;4898270;29;20077;-79
2022/01/27 04:15:36;;;;;;;45.88;24.00;;;102.70;2227.20;;;;;;4881500;29;20028;-86
2022/01/27 04:18:04;;;;;;;49.92;25.25;;;102.50;2227.20;;;;;;4898128;29;20029;-86
2022/01/27 04:20:30;;;;;;;53.78;26.05;;;102.60;2227.20;;;;;;4898171;29;20037;-86
2022/01/27 04:22:55;;;;;;;51.40;23.63;;;102.50;2227.20;;;;;;4898034;29;20092;-80
2022/01/27 04:25:21;;;;;;;;;;;102.60;2227.20;;;;;;4897162;29;20115;-79
2022/01/27 04:27:51;;;;;;;51.05;25.20;;;102.60;2227.20;;;;;;4897769;29;20349;-76
2022/01/27 04:30:20;;;;;;;50.15;25.08;;;102.50;2227.20;;;;;;4897868;29;20105;-76
2022/01/27 04:32:55;;;;;;;49.42;24.13;;;102.60;2227.20;;;;;;4897907;29;20450;-83
2022/01/27 04:35:24;;;;;;;46.92;24.85;;;102.60;2227.20;;;;;;4898092;29;20045;-78
2022/01/27 04:40:49;;;;;;;45.13;24.60;;;102.50;2227.20;;;;;;4908639;29;20496;-84
2022/01/27 04:48:29;;;;;;;50.53;25.10;;;102.50;2227.20;;;;;;4908630;29;20024;-80
2022/01/27 04:50:58;;;;;;;53.42;24.83;;;102.40;2227.20;;;;;;4890015;29;20541;-84
2022/01/27 04:53:31;;;;;;;46.95;24.52;;;102.40;2227.20;;;;;;4905368;29;20020;-79
2022/01/27 04:55:59;;;;;;;47.65;24.88;;;102.50;2227.20;;;;;;4890333;29;20457;-84
2022/01/27 04:58:31;;;;;;;50.70;23.42;;;102.60;2227.20;;;;;;4907923;29;20025;-83
2022/01/27 05:01:02;;;;;;;51.90;24.60;;;102.70;2227.20;;;;;;4908535;29;20188;-81
2022/01/27 05:03:56;;;;;;;51.72;23.60;;;102.80;2227.20;;;;;;4908016;29;20032;-84
2022/01/27 05:06:14;;;;;;;36.50;17.83;;;102.80;2227.20;;;;;;4908778;29;20032;-84
2022/01/27 05:08:41;;;;;;;;;;;102.80;2227.20;;;;;;4908933;29;20044;-77
2022/01/27 05:13:41;;;;;;;;;;;102.80;2227.20;;;;;;4907357;29;20020;-84
2022/01/27 05:16:07;;;;;;;43.35;21.45;;;102.90;2227.20;;;;;;4907828;29;19907;-83
2022/01/27 05:18:34;;;;;;;41.17;23.27;;;102.90;2227.20;;;;;;4905039;29;20024;-82
2022/01/27 05:20:59;;;;;;;49.00;25.02;;;102.80;2227.20;;;;;;4906736;29;20028;-81
2022/01/27 05:23:25;;;;;;;53.22;28.27;;;102.80;2227.20;;;;;;4888421;29;20052;-83
2022/01/27 05:25:51;;;;;;;;;;;102.90;2227.20;;;;;;4892270;29;20381;-84
2022/01/27 05:28:17;;;;;;;52.75;23.85;;;102.90;2227.20;;;;;;4906159;29;19914;-77
2022/01/27 05:30:42;;;;;;;46.50;23.40;;;103.00;2227.20;;;;;;4907228;29;20021;-80
2022/01/27 05:33:09;;;;;;;;;;;102.80;2227.20;;;;;;4908922;29;20035;-84
2022/01/27 05:35:36;;;;;;;35.22;17.73;;;102.80;2227.20;;;;;;4906784;29;19907;-77
2022/01/27 05:38:02;;;;;;;49.25;23.42;;;102.80;2227.20;;;;;;4890747;29;20048;-75
2022/01/27 05:40:28;;;;;;;44.85;23.77;;;102.90;2227.20;;;;;;4888423;29;20032;-76
2022/01/27 05:42:54;;;;;;;53.00;24.55;;;102.80;2227.20;;;;;;4889453;29;20033;-81
2022/01/27 05:45:19;;;;;;;;;;;102.80;2227.20;;;;;;4905706;29;20128;-77
2022/01/27 05:47:45;;;;;;;46.83;24.00;;;102.90;2227.20;;;;;;4904458;29;19916;-82
2022/01/27 05:50:11;;;;;;;;;;;102.70;2227.20;;;;;;4905927;29;20072;-76
2022/01/27 05:52:38;;;;;;;49.70;23.15;;;102.60;2227.20;;;;;;4891639;29;19915;-83
2022/01/27 05:55:04;;;;;;;46.97;21.52;;;102.70;2227.20;;;;;;4888694;29;20091;-84
2022/01/27 05:57:30;;;;;;;40.47;21.90;;;102.70;2227.20;;;;;;4905411;29;20037;-78
2022/01/27 05:59:56;;;;;;;46.63;23.13;;;102.80;2227.20;;;;;;4906735;29;20016;-83
2022/01/27 06:02:22;;;;;;;43.00;21.77;;;102.70;2227.20;;;;;;4906620;29;20044;-83
2022/01/27 06:04:47;;;;;;;;;;;102.90;2227.20;;;;;;4908322;29;20021;-81
2022/01/27 06:07:15;;;;;;;46.72;23.00;;;102.90;2227.20;;;;;;4909222;29;20379;-75
2022/01/27 06:09:41;;;;;;;50.25;22.85;;;102.80;2227.20;;;;;;4909248;29;20039;-77
2022/01/27 06:12:06;;;;;;;;;;;102.90;2227.20;;;;;;4912070;29;20028;-81
2022/01/27 06:14:32;;;;;;;41.92;21.10;;;102.80;2227.20;;;;;;4892186;29;19915;-75
2022/01/27 06:16:58;;;;;;;47.78;22.92;;;102.80;2227.20;;;;;;4892927;29;20016;-80
2022/01/27 06:19:27;;;;;;;;;;;102.80;2227.20;;;;;;4910791;29;20470;-84
2022/01/27 06:21:53;;;;;;;45.83;22.55;;;102.80;2227.20;;;;;;4891928;29;19931;-82
2022/01/27 06:24:19;;;;;;;41.97;21.50;;;102.70;2227.20;;;;;;4909314;29;20497;-79
2022/01/27 06:26:45;;;;;;;45.28;22.13;;;102.70;2227.20;;;;;;4891312;29;20123;-77
2022/01/27 06:29:11;;;;;;;51.85;24.30;;;102.60;2227.20;;;;;;4911900;29;20505;-83
2022/01/27 06:31:36;;;;;;;;;;;102.60;2227.20;;;;;;4894131;29;20056;-82
2022/01/27 06:34:02;;;;;;;54.72;23.75;;;102.60;2227.20;;;;;;4893127;29;19939;-83
2022/01/27 06:36:28;;;;;;;;;;;102.60;2227.20;;;;;;4894691;29;20044;-77
2022/01/27 06:38:54;;;;;;;45.78;21.98;;;102.70;2227.20;;;;;;4891490;29;19920;-77
2022/01/27 06:41:20;;;;;;;48.17;24.48;;;102.70;2227.20;;;;;;4909282;29;20032;-83
2022/01/27 06:43:46;;;;;;;;;;;102.80;2227.20;;;;;;4907788;29;20029;-84
2022/01/27 06:46:11;;;;;;;45.40;21.75;;;102.60;2227.20;;;;;;4893640;29;19907;-77
2022/01/27 06:48:37;;;;;;;;;;;102.80;2227.20;;;;;;4905946;29;20028;-84
2022/01/27 06:51:04;;;;;;;48.35;22.90;;;102.80;2227.20;;;;;;4901424;29;19911;-75
2022/01/27 06:53:30;;;;;;;53.50;24.15;;;102.80;2227.20;;;;;;4893649;29;20036;-77
2022/01/27 06:55:56;;;;;;;56.00;26.45;;;102.80;2227.20;;;;;;4907263;29;20418;-84
2022/01/27 06:58:22;;;;;;;;;;;102.80;2227.20;;;;;;4892821;29;20190;-74
2022/01/27 07:00:48;;;;;;;43.50;21.98;;;102.80;2227.20;;;;;;4906436;29;19907;-81
2022/01/27 07:03:14;;;;;;;54.70;25.23;;;102.90;2227.20;;;;;;4908716;29;20095;-85
2022/01/27 07:05:41;;;;;;;58.55;28.48;;;102.80;2227.20;;;;;;4908868;29;20028;-87
2022/01/27 07:08:07;;;;;;;56.10;25.55;;;102.80;2227.20;;;;;;4891102;29;20047;-83
2022/01/27 07:10:32;;;;;;;60.70;29.13;;;103.00;2227.20;;;;;;4907263;29;20386;-75
2022/01/27 07:12:58;;;;;;;;;;;102.90;2227.20;;;;;;4909584;29;20493;-83
2022/01/27 07:15:24;;;;;;;51.58;25.63;;;102.90;2227.20;;;;;;4906440;29;19907;-80
2022/01/27 07:17:50;;;;;;;52.47;25.55;;;103.00;2227.20;;;;;;4910227;29;20020;-84
2022/01/27 07:20:17;;;;;;;52.00;23.67;;;102.90;2227.20;;;;;;4908854;29;20028;-82
2022/01/27 07:22:43;;;;;;;47.15;23.50;;;103.00;2227.20;;;;;;4916174;29;20036;-84
2022/01/27 07:25:09;;;;;;;;;;;103.10;2227.20;;;;;;4919307;29;20438;-84
2022/01/27 07:27:36;;;;;;;43.80;21.73;;;103.10;2227.20;;;;;;4901550;29;19914;-83
2022/01/27 07:30:04;;;;;;;61.10;29.65;;;103.00;2227.20;;;;;;4899740;29;20024;-76
2022/01/27 07:32:29;;;;;;;77.03;35.97;;;103.00;2227.20;;;;;;4898634;29;20075;-76
2022/01/27 07:34:55;;;;;;;54.55;30.40;;;103.00;2227.20;;;;;;4882575;29;20060;-80
2022/01/27 07:37:21;;;;;;;;;;;103.00;2227.20;;;;;;4898933;29;20430;-76
2022/01/27 07:39:46;;;;;;;48.22;27.85;;;103.00;2227.20;;;;;;4898605;29;20274;-82
2022/01/27 07:42:12;;;;;;;53.58;26.75;;;103.00;2227.20;;;;;;4898999;29;20040;-95
2022/01/27 07:44:38;;;;;;;53.15;26.30;;;103.10;2227.20;;;;;;4882321;29;20036;-89
2022/01/27 07:47:04;;;;;;;;;;;103.10;2227.20;;;;;;4882887;29;20091;-77
2022/01/27 07:49:30;;;;;;;49.95;26.40;;;103.10;2227.20;;;;;;4898789;29;19962;-84
2022/01/27 07:51:56;;;;;;;76.22;42.80;;;128.10;2252.80;;;;;;4899225;29;20052;-90
2022/01/27 07:54:22;;;;;;;56.45;26.17;;;103.10;2227.20;;;;;;4898918;29;20478;-90
2022/01/27 07:56:48;;;;;;;53.30;25.73;;;103.10;2227.20;;;;;;4898976;29;20033;-76
2022/01/27 07:59:13;;;;;;;;;;;103.30;2227.20;;;;;;4898227;29;20119;-87
2022/01/27 08:01:39;;;;;;;50.85;24.42;;;128.00;2252.80;;;;;;4882248;29;19907;-88
2022/01/27 08:04:05;;;;;;;;;;;128.00;2252.80;;;;;;4897598;29;20506;-92
2022/01/27 08:06:31;;;;;;;52.33;26.08;;;103.30;2227.20;;;;;;4898503;29;20411;-78
2022/01/27 08:08:56;;;;;;;;;;;128.00;2252.80;;;;;;4897472;29;20075;-82
2022/01/27 08:11:22;;;;;;;59.03;25.17;;;103.30;2227.20;;;;;;4898271;29;19911;-83
2022/01/27 08:13:48;;;;;;;;;;;128.00;2252.80;;;;;;4897760;29;20040;-82
2022/01/27 08:16:14;;;;;;;48.70;24.75;;;128.00;2252.80;;;;;;4881919;29;19963;-83
2022/01/27 08:18:39;;;;;;;;;;;128.00;2252.80;;;;;;4898232;29;20028;-86
2022/01/27 08:21:05;;;;;;;57.60;25.55;;;128.00;2252.80;;;;;;4881476;29;19911;-83
2022/01/27 08:23:31;;;;;;;;;;;103.30;2227.20;;;;;;4898599;29;20045;-76
2022/01/27 08:26:06;;;;;;;50.45;23.77;;;128.00;2252.80;;;;;;4897353;29;19907;-75
2022/01/27 08:28:45;;;;;;;49.03;25.43;;;128.20;2252.80;;;;;;4881553;29;20072;-89
2022/01/27 08:31:13;;;;;;;46.92;24.33;;;128.30;2252.80;;;;;;4898567;29;20470;-76
2022/01/27 08:33:40;;;;;;;49.53;22.08;;;128.30;2252.80;;;;;;4881728;29;20550;-81
2022/01/27 08:36:06;;;;;;;49.38;23.67;;;128.40;2252.80;;;;;;4898400;29;20481;-76
2022/01/27 08:38:32;;;;;;;46.17;21.33;;;128.70;2252.80;;;;;;4881261;29;20133;-90
2022/01/27 08:40:59;;;;;;;48.75;22.15;;;128.40;2252.80;;;;;;4898551;29;20517;-91
2022/01/27 08:43:25;;;;;;;51.28;24.42;;;128.40;2252.80;;;;;;4881323;29;20508;-86
2022/01/27 08:45:51;;;;;;;;;;;128.40;2252.80;;;;;;4898482;29;20049;-76
2022/01/27 08:48:20;;;;;;;51.53;24.48;;;128.40;2252.80;;;;;;4881436;29;19912;-80
2022/01/27 08:50:52;;;;;;;54.25;25.35;;;128.40;2252.80;;;;;;4898119;29;20042;-81
2022/01/27 08:53:18;;;;;;;44.65;23.45;;;128.50;2252.80;;;;;;4897900;29;20047;-80
2022/01/27 08:55:44;;;;;;;55.05;25.38;;;128.40;2252.80;;;;;;4897983;29;20535;-88
2022/01/27 08:58:13;;;;;;;50.47;24.52;;;128.40;2252.80;;;;;;4881342;29;20040;-75
2022/01/27 09:00:39;;;;;;;53.08;25.63;;;128.60;2252.80;;;;;;4897801;29;20067;-79
2022/01/27 09:03:05;;;;;;;46.03;23.52;;;128.70;2252.80;;;;;;4897738;29;20060;-88
2022/01/27 09:05:31;;;;;;;56.72;27.17;;;128.70;2252.80;;;;;;4897758;29;20461;-82
2022/01/27 09:07:57;;;;;;;;;;;128.70;2252.80;;;;;;4907260;29;20036;-88
2022/01/27 09:10:27;;;;;;;65.47;32.38;;;128.50;2252.80;;;;;;4890590;29;19918;-83
2022/01/27 09:12:53;;;;;;;65.97;33.50;;;128.80;2252.80;;;;;;4910898;29;20021;-82
2022/01/27 09:15:19;;;;;;;59.85;31.08;;;128.80;2252.80;;;;;;4902799;29;20031;-75
2022/01/27 09:17:44;;;;;;;65.07;29.23;;;128.90;2252.80;;;;;;4907152;29;20029;-75
2022/01/27 09:20:11;;;;;;;;;;;153.60;2252.80;;;;;;4889200;29;20039;-83
2022/01/27 09:22:38;;;;;;;54.40;28.38;;;128.90;2252.80;;;;;;4910909;29;20360;-81
2022/01/27 09:25:12;;;;;;;54.47;26.73;;;128.90;2252.80;;;;;;4916644;29;20028;-77
2022/01/27 09:27:42;;;;;;;59.67;29.92;;;128.90;2252.80;;;;;;4899382;29;20059;-89
2022/01/27 09:30:09;;;;;;;50.58;25.85;;;128.90;2252.80;;;;;;4899011;29;20031;-75
2022/01/27 09:32:36;;;;;;;46.80;24.73;;;128.90;2252.80;;;;;;4915997;29;20028;-83
2022/01/27 09:35:02;;;;;;;53.42;24.90;;;153.60;2252.80;;;;;;4913187;29;20163;-87
2022/01/27 09:37:28;;;;;;;54.45;26.67;;;153.60;2252.80;;;;;;4906214;29;20096;-87
2022/01/27 09:39:54;;;;;;;54.90;29.52;;;153.70;2252.80;;;;;;4892283;29;20569;-77
2022/01/27 09:42:21;;;;;;;;;;;153.60;2252.80;;;;;;4901633;29;20096;-82
2022/01/27 09:44:52;;;;;;;55.50;29.77;;;153.70;2252.80;;;;;;4901240;29;19918;-81
2022/01/27 09:47:19;;;;;;;59.17;29.92;;;128.90;2252.80;;;;;;4900267;29;20049;-83
2022/01/27 09:50:04;;;;;;;52.08;27.92;;;128.90;2252.80;;;;;;4901328;29;20032;-76
2022/01/27 09:52:30;;;;;;;50.47;26.17;;;153.60;2252.80;;;;;;4884386;29;20029;-85
2022/01/27 09:54:55;;;;;;;44.83;22.45;;;153.70;2252.80;;;;;;4901277;29;20359;-85
2022/01/27 09:57:21;;;;;;;;;;;128.90;2252.80;;;;;;4901486;29;20066;-76
2022/01/27 09:59:47;;;;;;;47.72;22.60;;;128.90;2252.80;;;;;;4884983;29;19908;-76
2022/01/27 10:02:16;;;;;;;;;;;153.60;2252.80;;;;;;4901122;29;20100;-84
2022/01/27 10:04:58;;;;;;;45.88;22.33;;;128.90;2252.80;;;;;;4911122;29;19931;-78
2022/01/27 10:07:30;;;;;;;45.92;21.58;;;153.70;2252.80;;;;;;4908938;29;20128;-82
2022/01/27 10:10:06;;;;;;;45.83;20.77;;;153.60;2252.80;;;;;;4909220;29;20032;-75
2022/01/27 10:12:38;;;;;;;32.65;17.15;;;128.90;2252.80;;;;;;4916939;29;20024;-88
2022/01/27 10:15:24;;;;;;;43.83;22.02;;;128.90;2252.80;;;;;;4894582;29;20062;-79
2022/01/27 10:18:10;;;;;;;48.75;22.45;;;128.90;2252.80;;;;;;4913442;29;20058;-85
2022/01/27 10:20:40;;;;;;;41.65;21.08;;;128.90;2252.80;;;;;;4900653;29;20039;-75
2022/01/27 10:23:12;;;;;;;50.47;22.92;;;128.90;2252.80;;;;;;4907665;29;20032;-90
2022/01/27 10:25:46;;;;;;;47.03;24.45;;;153.60;2252.80;;;;;;4909533;29;20618;-76
2022/01/27 10:28:32;;;;;;;48.00;23.23;;;128.90;2252.80;;;;;;4913600;29;20063;-76
2022/01/27 10:31:04;;;;;;;48.15;23.30;;;128.90;2252.80;;;;;;4911050;29;20079;-87
2022/01/27 10:33:44;;;;;;;52.58;23.70;;;153.60;2252.80;;;;;;4895295;29;20044;-80
2022/01/27 10:36:15;;;;;;;52.65;25.83;;;153.60;2252.80;;;;;;4892935;29;20192;-75
2022/01/27 10:38:40;;;;;;;46.38;24.70;;;128.90;2252.80;;;;;;4907071;29;20047;-75
2022/01/27 10:41:07;;;;;;;52.60;26.42;;;153.80;2252.80;;;;;;4889980;29;20037;-81
2022/01/27 10:43:34;;;;;;;52.85;28.02;;;153.70;2252.80;;;;;;4883448;29;20040;-75
2022/01/27 10:49:02;;;;;;;54.17;27.38;;;153.80;2252.80;;;;;;4900228;29;20164;-89
2022/01/27 10:51:33;;;;;;;52.75;26.90;;;153.80;2252.80;;;;;;4883470;29;20024;-82
2022/01/27 10:56:29;;;;;;;55.25;26.08;;;154.10;2252.80;;;;;;4900186;29;20039;-90
2022/01/27 10:58:57;;;;;;;48.83;25.08;;;154.10;2252.80;;;;;;4899899;29;20032;-76
2022/01/27 11:01:28;;;;;;;46.33;24.63;;;154.10;2252.80;;;;;;4900217;29;20076;-90
2022/01/27 11:03:57;;;;;;;49.33;23.17;;;154.10;2252.80;;;;;;4900147;29;20489;-91
2022/01/27 11:06:25;;;;;;;42.97;23.65;;;154.10;2252.80;;;;;;4899880;29;20040;-76
2022/01/27 11:08:56;;;;;;;45.22;22.13;;;154.10;2252.80;;;;;;4899928;29;20029;-84
2022/01/27 11:11:23;;;;;;;47.13;23.85;;;154.10;2252.80;;;;;;4899775;29;20092;-86
2022/01/27 11:13:51;;;;;;;46.13;22.20;;;154.20;2252.80;;;;;;4902537;29;20028;-87
2022/01/27 11:16:22;;;;;;;40.97;20.73;;;154.30;2252.80;;;;;;4892918;29;20036;-86
2022/01/27 11:18:49;;;;;;;39.72;21.52;;;154.30;2252.80;;;;;;4909448;29;20016;-83
2022/01/27 11:21:33;;;;;;;45.83;21.80;;;154.50;2252.80;;;;;;4907632;29;20027;-83
2022/01/27 11:26:27;;;;;;;44.75;21.85;;;179.80;2252.80;;;;;;4905903;29;20024;-86
2022/01/27 11:28:55;;;;;;;48.42;22.70;;;179.70;2252.80;;;;;;4899419;29;20398;-85
2022/01/27 11:31:42;;;;;;;45.65;23.38;;;179.90;2252.80;;;;;;4912169;29;20036;-84
2022/01/27 11:34:11;;;;;;;38.15;21.25;;;180.00;2252.80;;;;;;4918266;29;20025;-85
2022/01/27 11:36:38;;;;;;;40.28;22.50;;;204.80;2252.80;;;;;;4901365;29;20028;-77
2022/01/27 11:39:11;;;;;;;41.83;21.98;;;205.00;2252.80;;;;;;4901626;29;20143;-83
2022/01/27 11:41:47;;;;;;;44.58;21.73;;;205.20;2252.80;;;;;;4918515;29;20055;-85
2022/01/27 11:44:36;;;;;;;48.17;23.75;;;205.30;2227.20;;;;;;4901212;29;20039;-84
2022/01/27 11:47:16;;;;;;;36.78;18.65;;;205.60;2201.60;;;;;;4901225;29;20032;-76
2022/01/27 11:49:59;;;;;;;29.67;14.95;;;205.70;2150.40;;;;;;4918182;29;20059;-84
2022/01/27 11:52:47;;;;;;;34.00;17.02;;;205.70;2073.60;;;;;;4901140;29;20032;-82
2022/01/27 11:55:25;;;;;;;34.55;17.42;;;205.70;2073.60;;;;;;4917782;29;20032;-83
2022/01/27 11:58:15;;;;;;;35.33;18.60;;;230.60;2073.60;;;;;;4918040;29;20104;-82
2022/01/27 12:01:00;;;;;;;34.58;18.50;;;230.60;2048.00;;;;;;4840862;29;20491;-76
2022/01/27 12:03:26;;;;;;;37.47;19.95;;;230.70;2048.00;;;;;;4841030;29;20049;-76
2022/01/27 12:06:17;;;;;;;35.85;17.23;;;230.70;2022.40;;;;;;4841226;29;20041;-84
2022/01/27 12:08:44;;;;;;;37.45;19.42;;;230.70;1996.80;;;;;;4840791;29;20041;-84
2022/01/27 12:11:30;;;;;;;44.42;20.83;;;230.60;1996.80;;;;;;4841340;29;20042;-75
2022/01/27 12:14:00;;;;;;;33.45;17.45;;;230.50;1996.80;;;;;;4840657;29;20121;-84
2022/01/27 12:19:10;;;;;;;42.80;20.15;;;230.50;1996.80;;;;;;4840649;29;20565;-82
2022/01/27 12:22:00;;;;;;;39.28;21.85;;;230.60;2022.40;;;;;;4840934;29;20472;-83
2022/01/27 12:24:31;;;;;;;41.33;21.88;;;205.70;2073.60;;;;;;4840516;29;20908;-85
2022/01/27 12:27:01;;;;;;;38.22;22.27;;;230.50;2073.60;;;;;;4840358;29;20022;-80
2022/01/27 12:29:26;;;;;;;39.60;22.13;;;205.60;2124.80;;;;;;4840561;29;20523;-77
2022/01/27 12:31:53;;;;;;;;;;;230.40;2099.20;;;;;;4840978;29;20045;-81
2022/01/27 12:34:20;;;;;;;39.28;22.05;;;205.70;2099.20;;;;;;4840805;29;20049;-76
2022/01/27 12:37:07;;;;;;;41.72;19.95;;;205.70;2099.20;;;;;;4848532;29;20042;-80
2022/01/27 12:39:49;;;;;;;32.58;16.35;;;205.60;2099.20;;;;;;4897683;29;20057;-75
2022/01/27 12:42:16;;;;;;;39.33;18.25;;;205.60;2124.80;;;;;;4898004;29;20036;-82
2022/01/27 12:45:12;;;;;;;38.92;20.67;;;205.40;2099.20;;;;;;4881740;29;20029;-86
2022/01/27 12:47:49;;;;;;;43.65;20.73;;;205.40;2150.40;;;;;;4897835;29;20033;-84
2022/01/27 12:50:20;;;;;;;37.15;19.58;;;204.90;2252.80;;;;;;4896555;29;20025;-82
2022/01/27 12:52:47;;;;;;;52.22;25.05;;;180.10;2252.80;;;;;;4897032;29;20029;-75
2022/01/27 12:55:22;;;;;;;51.45;25.38;;;205.00;2252.80;;;;;;4897730;29;20036;-80
2022/01/27 12:58:02;;;;;;;37.88;19.73;;;205.20;2252.80;;;;;;4897542;29;20041;-79
2022/01/27 13:00:35;;;;;;;46.10;22.45;;;205.30;2252.80;;;;;;4880826;29;20054;-77
2022/01/27 13:03:02;;;;;;;44.55;21.70;;;205.30;2252.80;;;;;;4895419;29;20037;-79
2022/01/27 13:05:35;;;;;;;46.67;23.65;;;205.20;2252.80;;;;;;4897474;29;20103;-80
2022/01/27 13:08:12;;;;;;;36.88;20.83;;;205.00;2252.80;;;;;;4895357;29;20029;-76
2022/01/27 13:10:44;;;;;;;29.60;14.02;;;205.10;2252.80;;;;;;4875682;29;20048;-86
2022/01/27 13:13:15;;;;;;;36.65;18.50;;;205.20;2227.20;;;;;;4880181;29;20081;-76
2022/01/27 13:15:41;;;;;;;35.95;19.05;;;205.10;2227.20;;;;;;4897277;29;20036;-80
2022/01/27 13:18:23;;;;;;;34.50;16.88;;;205.10;2252.80;;;;;;4897351;29;20025;-79
2022/01/27 13:20:54;;;;;;;36.10;17.50;;;205.00;2201.60;;;;;;4896304;29;20064;-79
2022/01/27 13:23:34;;;;;;;47.63;24.50;;;205.10;2201.60;;;;;;4896896;29;20043;-78